createdAt,value
2018-12-20T00:00:19.788Z,7.83
2018-12-20T00:02:48.020Z,7.20
2018-12-20T00:05:16.110Z,6.93
2018-12-20T00:07:43.778Z,6.47
2018-12-20T00:10:11.549Z,6.93
2018-12-20T00:12:39.154Z,6.93
2018-12-20T00:15:06.784Z,6.80
2018-12-20T00:17:40.033Z,6.37
2018-12-20T00:20:07.690Z,6.20
2018-12-20T00:22:35.313Z,6.40
2018-12-20T00:25:03.348Z,6.90
2018-12-20T00:27:31.174Z,6.67
2018-12-20T00:29:58.808Z,6.33
2018-12-20T00:32:26.728Z,6.13
2018-12-20T00:34:54.405Z,6.17
2018-12-20T00:37:22.086Z,6.23
2018-12-20T00:39:49.814Z,6.93
2018-12-20T00:42:17.383Z,6.37
2018-12-20T00:44:45.157Z,6.63
2018-12-20T00:47:12.968Z,7.07
2018-12-20T00:49:40.623Z,7.37
2018-12-20T00:52:08.243Z,7.33
2018-12-20T00:54:36.113Z,9.00
2018-12-20T00:57:03.980Z,9.67
2018-12-20T00:59:31.749Z,10.10
2018-12-20T01:01:59.389Z,9.17
2018-12-20T01:04:26.962Z,9.70
2018-12-20T01:06:54.515Z,8.90
2018-12-20T01:09:22.376Z,7.90
2018-12-20T01:11:50.233Z,8.20
2018-12-20T01:14:17.765Z,7.67
2018-12-20T01:16:45.718Z,8.00
2018-12-20T01:19:13.593Z,8.30
2018-12-20T01:21:41.315Z,8.07
2018-12-20T01:24:09.469Z,8.17
2018-12-20T01:26:37.293Z,8.70
2018-12-20T01:29:05.096Z,8.60
2018-12-20T01:31:32.935Z,9.83
2018-12-20T01:34:00.741Z,9.33
2018-12-20T01:36:28.343Z,8.97
2018-12-20T01:38:55.916Z,9.37
2018-12-20T01:41:23.764Z,10.43
2018-12-20T01:43:51.389Z,9.47
2018-12-20T01:46:19.031Z,9.17
2018-12-20T01:48:46.714Z,9.70
2018-12-20T01:51:14.387Z,9.73
2018-12-20T01:53:42.046Z,9.53
2018-12-20T01:56:09.880Z,9.73
2018-12-20T01:58:37.820Z,9.60
2018-12-20T02:01:05.914Z,9.87
2018-12-20T02:03:33.681Z,9.13
2018-12-20T02:06:01.523Z,10.37
2018-12-20T02:08:29.089Z,9.77
2018-12-20T02:10:56.669Z,8.13
2018-12-20T02:13:24.414Z,9.00
2018-12-20T02:15:52.315Z,8.47
2018-12-20T02:18:20.002Z,7.83
2018-12-20T02:20:48.039Z,8.03
2018-12-20T02:23:15.655Z,8.30
2018-12-20T02:25:43.800Z,7.67
2018-12-20T02:28:11.929Z,8.13
2018-12-20T02:30:39.893Z,7.70
2018-12-20T02:33:07.793Z,7.53
2018-12-20T02:35:35.752Z,8.27
2018-12-20T02:38:03.445Z,8.97
2018-12-20T02:40:31.475Z,8.80
2018-12-20T02:42:59.272Z,8.00
2018-12-20T02:45:26.806Z,9.17
2018-12-20T02:47:54.343Z,8.63
2018-12-20T02:50:22.080Z,8.50
2018-12-20T02:52:50.171Z,7.83
2018-12-20T02:55:17.968Z,8.80
2018-12-20T02:57:45.736Z,8.67
2018-12-20T03:00:13.648Z,8.50
2018-12-20T03:02:41.654Z,8.93
2018-12-20T03:05:09.544Z,9.20
2018-12-20T03:07:37.298Z,9.23
2018-12-20T03:10:05.208Z,8.87
2018-12-20T03:12:32.873Z,8.13
2018-12-20T03:15:00.606Z,8.73
2018-12-20T03:17:28.176Z,8.33
2018-12-20T03:19:55.886Z,8.27
2018-12-20T03:22:23.910Z,8.23
2018-12-20T03:24:51.578Z,8.13
2018-12-20T03:27:19.359Z,8.07
2018-12-20T03:29:47.152Z,7.90
2018-12-20T03:32:14.772Z,8.00
2018-12-20T03:34:42.316Z,8.07
2018-12-20T03:37:10.089Z,7.70
2018-12-20T03:39:37.789Z,7.97
2018-12-20T03:42:05.457Z,7.53
2018-12-20T03:44:33.196Z,7.60
2018-12-20T03:47:01.099Z,7.90
2018-12-20T03:49:28.713Z,7.53
2018-12-20T03:51:56.694Z,6.90
2018-12-20T03:54:24.488Z,6.83
2018-12-20T03:56:52.264Z,7.27
2018-12-20T03:59:20.156Z,7.27
2018-12-20T04:01:48.215Z,7.23
2018-12-20T04:04:16.054Z,6.57
2018-12-20T04:06:43.993Z,8.07
2018-12-20T04:09:11.741Z,9.13
2018-12-20T04:11:39.804Z,9.07
2018-12-20T04:14:07.418Z,9.60
2018-12-20T04:16:35.119Z,7.03
2018-12-20T04:19:03.016Z,7.37
2018-12-20T04:21:30.658Z,8.00
2018-12-20T04:23:58.556Z,8.60
2018-12-20T04:26:26.608Z,8.10
2018-12-20T04:28:54.442Z,8.57
2018-12-20T04:31:22.278Z,9.00
2018-12-20T04:33:50.118Z,7.80
2018-12-20T04:36:18.001Z,7.90
2018-12-20T04:38:45.711Z,7.97
2018-12-20T04:41:13.607Z,8.50
2018-12-20T04:43:41.681Z,9.33
2018-12-20T04:46:09.619Z,9.07
2018-12-20T04:48:37.621Z,9.37
2018-12-20T04:51:05.332Z,8.53
2018-12-20T04:53:32.998Z,8.23
2018-12-20T04:56:00.957Z,8.33
2018-12-20T04:58:28.842Z,9.07
2018-12-20T05:00:56.968Z,8.53
2018-12-20T05:03:25.522Z,7.73
2018-12-20T05:05:53.275Z,8.13
2018-12-20T05:08:21.209Z,8.07
2018-12-20T05:10:48.879Z,8.40
2018-12-20T05:13:16.580Z,8.07
2018-12-20T05:15:44.332Z,6.97
2018-12-20T05:18:12.224Z,7.20
2018-12-20T05:20:39.899Z,8.43
2018-12-20T05:23:07.695Z,7.10
2018-12-20T05:25:35.773Z,6.40
2018-12-20T05:28:03.695Z,6.67
2018-12-20T05:30:31.325Z,7.00
2018-12-20T05:32:59.363Z,6.10
2018-12-20T05:35:27.429Z,7.27
2018-12-20T05:37:55.204Z,6.40
2018-12-20T05:40:22.848Z,6.67
2018-12-20T05:42:50.609Z,6.73
2018-12-20T05:45:18.494Z,6.97
2018-12-20T05:47:46.792Z,6.80
2018-12-20T05:50:14.799Z,6.33
2018-12-20T05:52:42.393Z,6.90
2018-12-20T05:55:10.025Z,6.20
2018-12-20T05:57:37.672Z,5.87
2018-12-20T06:00:07.961Z,6.73
2018-12-20T06:02:35.670Z,6.17
2018-12-20T06:05:04.954Z,5.33
2018-12-20T06:07:32.710Z,5.50
2018-12-20T06:10:00.252Z,6.40
2018-12-20T06:12:28.109Z,5.47
2018-12-20T06:14:56.163Z,5.60
2018-12-20T06:17:23.836Z,5.40
2018-12-20T06:19:52.794Z,4.20
2018-12-20T06:22:20.752Z,5.10
2018-12-20T06:24:48.350Z,5.20
2018-12-20T06:27:15.949Z,5.13
2018-12-20T06:29:43.723Z,4.87
2018-12-20T06:32:11.283Z,4.53
2018-12-20T06:34:39.289Z,4.97
2018-12-20T06:37:06.833Z,5.50
2018-12-20T06:39:34.783Z,4.80
2018-12-20T06:42:02.295Z,3.93
2018-12-20T06:44:30.408Z,3.57
2018-12-20T06:46:58.072Z,3.23
2018-12-20T06:49:25.928Z,3.03
2018-12-20T06:51:53.450Z,2.90
2018-12-20T06:54:21.154Z,3.30
2018-12-20T06:56:48.695Z,3.20
2018-12-20T06:59:16.403Z,2.93
2018-12-20T07:01:43.985Z,2.60
2018-12-20T07:04:11.689Z,3.80
2018-12-20T07:06:39.828Z,3.50
2018-12-20T07:09:07.648Z,3.50
2018-12-20T07:11:35.166Z,2.80
2018-12-20T07:14:02.751Z,3.40
2018-12-20T07:16:30.621Z,3.20
2018-12-20T07:18:58.178Z,3.23
2018-12-20T07:21:25.711Z,3.37
2018-12-20T07:23:53.255Z,2.90
2018-12-20T07:26:20.951Z,2.40
2018-12-20T07:28:48.725Z,3.33
2018-12-20T07:31:16.455Z,2.90
2018-12-20T07:33:44.149Z,2.40
2018-12-20T07:36:11.764Z,3.00
2018-12-20T07:38:39.275Z,1.87
2018-12-20T07:41:06.828Z,2.27
2018-12-20T07:43:34.371Z,1.80
2018-12-20T07:46:01.926Z,3.03
2018-12-20T07:48:32.227Z,2.00
2018-12-20T07:50:59.114Z,5.63
2018-12-20T07:53:26.669Z,4.70
2018-12-20T07:55:54.200Z,5.20
2018-12-20T07:58:21.985Z,4.87
2018-12-20T08:00:49.982Z,2.60
2018-12-20T08:03:17.663Z,2.43
2018-12-20T08:05:45.399Z,1.77
2018-12-20T08:08:12.960Z,1.83
2018-12-20T08:10:40.511Z,1.57
2018-12-20T08:13:08.226Z,2.83
2018-12-20T08:15:35.951Z,2.30
2018-12-20T08:18:03.580Z,1.40
2018-12-20T08:20:31.115Z,1.57
2018-12-20T08:22:58.901Z,1.30
2018-12-20T08:25:26.575Z,1.57
2018-12-20T08:27:54.159Z,1.43
2018-12-20T08:30:21.694Z,1.40
2018-12-20T08:32:49.426Z,1.87
2018-12-20T08:35:16.981Z,1.77
2018-12-20T08:37:44.550Z,2.23
2018-12-20T08:40:12.256Z,1.97
2018-12-20T08:42:39.895Z,1.70
2018-12-20T08:45:07.588Z,1.93
2018-12-20T08:47:35.453Z,2.07
2018-12-20T08:50:03.609Z,2.20
2018-12-20T08:52:31.178Z,2.40
2018-12-20T08:54:58.734Z,1.73
2018-12-20T08:57:26.284Z,1.80
2018-12-20T08:59:53.833Z,1.93
2018-12-20T09:02:21.384Z,2.10
2018-12-20T09:04:48.926Z,2.10
2018-12-20T09:07:16.549Z,2.20
2018-12-20T09:09:44.605Z,2.70
2018-12-20T09:12:12.469Z,2.17
2018-12-20T09:14:40.195Z,2.50
2018-12-20T09:17:07.816Z,2.50
2018-12-20T09:19:35.431Z,2.50
2018-12-20T09:22:10.363Z,2.30
2018-12-20T09:24:38.038Z,2.17
2018-12-20T09:27:05.785Z,2.30
2018-12-20T09:29:33.315Z,3.30
2018-12-20T09:32:00.888Z,2.90
2018-12-20T09:34:28.660Z,2.73
2018-12-20T09:36:56.808Z,2.93
2018-12-20T09:39:24.590Z,2.20
2018-12-20T09:41:52.148Z,2.20
2018-12-20T09:44:19.665Z,2.30
2018-12-20T09:46:47.384Z,2.23
2018-12-20T09:49:14.899Z,2.20
2018-12-20T09:51:42.466Z,2.60
2018-12-20T09:54:10.129Z,2.57
2018-12-20T09:56:37.781Z,2.33
2018-12-20T09:59:05.612Z,2.00
2018-12-20T10:01:33.134Z,2.07
2018-12-20T10:04:00.674Z,2.17
2018-12-20T10:06:28.281Z,2.30
2018-12-20T10:08:55.811Z,2.13
2018-12-20T10:11:23.731Z,1.83
2018-12-20T10:13:51.270Z,1.70
2018-12-20T10:16:18.912Z,2.10
2018-12-20T10:18:46.470Z,2.10
2018-12-20T10:21:14.141Z,1.70
2018-12-20T10:23:42.245Z,1.70
2018-12-20T10:26:09.906Z,1.80
2018-12-20T10:28:37.489Z,1.30
2018-12-20T10:31:05.093Z,1.43
2018-12-20T10:33:32.801Z,1.63
2018-12-20T10:36:00.611Z,1.50
2018-12-20T10:38:28.484Z,1.70
2018-12-20T10:40:56.029Z,1.40
2018-12-20T10:43:23.554Z,5.00
2018-12-20T10:45:51.205Z,3.77
2018-12-20T10:48:18.772Z,1.53
2018-12-20T10:50:46.349Z,1.30
2018-12-20T10:53:13.855Z,1.50
2018-12-20T10:55:42.250Z,1.00
2018-12-20T10:58:10.015Z,1.20
2018-12-20T11:00:43.081Z,1.03
2018-12-20T11:03:16.160Z,1.10
2018-12-20T11:05:49.221Z,1.40
2018-12-20T11:08:23.385Z,1.37
2018-12-20T11:10:52.913Z,1.20
2018-12-20T11:13:25.231Z,0.90
2018-12-20T11:15:53.094Z,1.00
2018-12-20T11:18:21.113Z,1.20
2018-12-20T11:20:48.630Z,1.60
2018-12-20T11:23:16.326Z,0.90
2018-12-20T11:25:44.252Z,0.93
2018-12-20T11:28:12.064Z,1.10
2018-12-20T11:30:39.587Z,1.73
2018-12-20T11:33:07.129Z,1.80
2018-12-20T11:35:34.914Z,0.90
2018-12-20T11:38:02.455Z,0.90
2018-12-20T11:40:29.960Z,1.60
2018-12-20T11:42:57.696Z,1.10
2018-12-20T11:45:25.205Z,0.90
2018-12-20T11:47:52.781Z,0.90
2018-12-20T11:50:20.310Z,0.90
2018-12-20T11:52:47.865Z,1.10
2018-12-20T11:55:15.387Z,1.60
2018-12-20T11:57:43.217Z,1.10
2018-12-20T12:00:11.040Z,0.87
2018-12-20T12:02:39.122Z,1.00
2018-12-20T12:05:06.631Z,1.40
2018-12-20T12:07:34.546Z,1.00
2018-12-20T12:10:02.246Z,0.80
2018-12-20T12:12:29.770Z,0.77
2018-12-20T12:14:57.356Z,0.90
2018-12-20T12:17:24.909Z,0.97
2018-12-20T12:19:52.654Z,0.90
2018-12-20T12:22:20.700Z,0.73
2018-12-20T12:24:48.290Z,1.20
2018-12-20T12:27:15.991Z,0.90
2018-12-20T12:29:43.909Z,0.80
2018-12-20T12:32:11.466Z,0.80
2018-12-20T12:34:39.273Z,0.90
2018-12-20T12:37:06.965Z,0.90
2018-12-20T12:39:34.780Z,0.90
2018-12-20T12:42:02.586Z,1.00
2018-12-20T12:44:30.299Z,2.50
2018-12-20T12:46:57.844Z,1.57
2018-12-20T12:49:25.464Z,0.70
2018-12-20T12:51:53.560Z,1.00
2018-12-20T12:54:21.260Z,0.97
2018-12-20T12:56:48.771Z,1.20
2018-12-20T12:59:16.568Z,1.20
2018-12-20T13:01:44.249Z,1.00
2018-12-20T13:04:11.827Z,1.10
2018-12-20T13:06:39.635Z,1.33
2018-12-20T13:09:07.225Z,1.53
2018-12-20T13:11:35.020Z,0.90
2018-12-20T13:14:02.648Z,1.20
2018-12-20T13:16:30.295Z,0.90
2018-12-20T13:18:58.221Z,1.03
2018-12-20T13:21:25.764Z,0.90
2018-12-20T13:23:53.594Z,1.47
2018-12-20T13:26:21.355Z,1.17
2018-12-20T13:28:49.036Z,1.50
2018-12-20T13:31:16.630Z,1.20
2018-12-20T13:33:45.266Z,1.80
2018-12-20T13:36:12.810Z,1.27
2018-12-20T13:38:40.352Z,1.33
2018-12-20T13:41:08.033Z,1.20
2018-12-20T13:43:35.724Z,1.30
2018-12-20T13:46:03.256Z,1.17
2018-12-20T13:48:30.846Z,1.03
2018-12-20T13:50:58.668Z,1.33
2018-12-20T13:53:26.377Z,1.10
2018-12-20T13:55:54.303Z,1.07
2018-12-20T13:58:22.291Z,2.23
2018-12-20T14:00:50.349Z,3.10
2018-12-20T14:03:18.225Z,2.30
2018-12-20T14:05:46.669Z,2.23
2018-12-20T14:08:14.584Z,0.97
2018-12-20T14:10:42.504Z,1.10
2018-12-20T14:13:10.600Z,1.00
2018-12-20T14:15:38.178Z,1.20
2018-12-20T14:18:06.024Z,0.90
2018-12-20T14:20:33.754Z,1.30
2018-12-20T14:23:01.439Z,1.10
2018-12-20T14:25:29.039Z,0.97
2018-12-20T14:27:56.910Z,1.10
2018-12-20T14:30:24.511Z,1.17
2018-12-20T14:32:52.289Z,0.90
2018-12-20T14:35:19.911Z,0.70
2018-12-20T14:37:47.464Z,0.87
2018-12-20T14:40:15.029Z,0.60
2018-12-20T14:42:42.693Z,0.80
2018-12-20T14:45:10.425Z,0.90
2018-12-20T14:47:38.231Z,1.07
2018-12-20T14:50:06.880Z,0.70
2018-12-20T14:52:34.513Z,0.70
2018-12-20T14:55:02.366Z,0.73
2018-12-20T14:57:30.006Z,1.10
2018-12-20T14:59:57.816Z,0.90
2018-12-20T15:02:25.691Z,1.10
2018-12-20T15:04:53.296Z,0.87
2018-12-20T15:07:21.113Z,0.93
2018-12-20T15:09:48.779Z,0.80
2018-12-20T15:12:16.694Z,0.90
2018-12-20T15:14:44.308Z,0.73
2018-12-20T15:17:12.054Z,0.80
2018-12-20T15:19:39.835Z,1.30
2018-12-20T15:22:07.409Z,0.90
2018-12-20T15:24:35.029Z,0.70
2018-12-20T15:27:02.654Z,0.70
2018-12-20T15:29:30.410Z,0.70
2018-12-20T15:31:58.020Z,0.70
2018-12-20T15:34:25.828Z,0.70
2018-12-20T15:36:53.385Z,0.90
2018-12-20T15:39:21.259Z,1.63
2018-12-20T15:41:49.035Z,1.00
2018-12-20T15:44:16.604Z,1.10
2018-12-20T15:46:44.406Z,0.90
2018-12-20T15:49:12.254Z,0.93
2018-12-20T15:51:39.808Z,1.00
2018-12-20T15:54:07.684Z,1.13
2018-12-20T15:56:35.235Z,1.20
2018-12-20T15:59:02.750Z,1.10
2018-12-20T16:01:30.333Z,1.50
2018-12-20T16:03:57.921Z,2.10
2018-12-20T16:06:25.471Z,1.23
2018-12-20T16:08:53.257Z,1.10
2018-12-20T16:11:21.061Z,1.30
2018-12-20T16:13:49.104Z,1.40
2018-12-20T16:16:17.074Z,1.40
2018-12-20T16:18:45.258Z,1.50
2018-12-20T16:21:12.925Z,2.40
2018-12-20T16:23:40.690Z,2.83
2018-12-20T16:26:08.464Z,1.60
2018-12-20T16:28:36.185Z,1.63
2018-12-20T16:31:04.030Z,1.50
2018-12-20T16:33:31.589Z,2.17
2018-12-20T16:35:59.320Z,6.00
2018-12-20T16:38:26.854Z,3.10
2018-12-20T16:40:54.570Z,2.50
2018-12-20T16:43:22.101Z,2.53
2018-12-20T16:45:49.863Z,1.80
2018-12-20T16:48:19.451Z,2.37
2018-12-20T16:50:47.030Z,2.20
2018-12-20T16:53:15.201Z,1.97
2018-12-20T16:55:42.727Z,2.00
2018-12-20T16:58:10.309Z,1.57
2018-12-20T17:00:37.936Z,1.30
2018-12-20T17:03:05.455Z,1.40
2018-12-20T17:05:33.019Z,1.30
2018-12-20T17:08:00.862Z,1.50
2018-12-20T17:10:28.575Z,1.03
2018-12-20T17:12:56.183Z,1.60
2018-12-20T17:15:23.725Z,1.10
2018-12-20T17:17:51.307Z,1.30
2018-12-20T17:20:19.172Z,1.70
2018-12-20T17:22:46.886Z,2.00
2018-12-20T17:25:14.593Z,2.50
2018-12-20T17:27:42.140Z,3.03
2018-12-20T17:30:09.685Z,6.40
2018-12-20T17:32:37.384Z,2.33
2018-12-20T17:35:05.050Z,2.00
2018-12-20T17:37:32.799Z,2.10
2018-12-20T17:40:00.374Z,2.33
2018-12-20T17:42:29.900Z,2.20
2018-12-20T17:44:57.580Z,1.90
2018-12-20T17:47:25.624Z,3.03
2018-12-20T17:49:53.268Z,2.90
2018-12-20T17:52:20.815Z,2.40
2018-12-20T17:54:48.414Z,2.53
2018-12-20T17:57:16.192Z,2.00
2018-12-20T17:59:43.755Z,2.20
2018-12-20T18:02:11.475Z,3.00
2018-12-20T18:04:39.254Z,4.30
2018-12-20T18:07:07.163Z,3.70
2018-12-20T18:09:34.694Z,2.23
2018-12-20T18:12:02.395Z,1.60
2018-12-20T18:14:29.912Z,3.13
2018-12-20T18:16:57.589Z,1.57
2018-12-20T18:19:25.145Z,2.70
2018-12-20T18:21:52.684Z,2.17
2018-12-20T18:24:20.284Z,2.20
2018-12-20T18:26:48.033Z,2.37
2018-12-20T18:29:15.602Z,1.37
2018-12-20T18:31:43.144Z,2.13
2018-12-20T18:34:10.955Z,1.80
2018-12-20T18:36:38.794Z,1.80
2018-12-20T18:39:06.514Z,1.80
2018-12-20T18:41:34.166Z,1.73
2018-12-20T18:44:01.734Z,2.07
2018-12-20T18:46:29.308Z,1.70
2018-12-20T18:48:56.906Z,1.90
2018-12-20T18:51:24.503Z,1.33
2018-12-20T18:53:52.020Z,2.10
2018-12-20T18:56:19.747Z,2.00
2018-12-20T18:58:47.585Z,1.90
2018-12-20T19:01:15.137Z,1.97
2018-12-20T19:03:43.023Z,2.30
2018-12-20T19:06:10.594Z,1.60
2018-12-20T19:08:38.629Z,1.33
2018-12-20T19:11:06.160Z,1.80
2018-12-20T19:13:33.711Z,1.57
2018-12-20T19:16:01.507Z,1.30
2018-12-20T19:18:29.101Z,1.60
2018-12-20T19:20:56.725Z,1.20
2018-12-20T19:23:24.324Z,1.40
2018-12-20T19:25:52.026Z,1.30
2018-12-20T19:28:19.824Z,1.20
2018-12-20T19:30:47.396Z,1.40
2018-12-20T19:33:15.172Z,1.40
2018-12-20T19:35:42.999Z,1.67
2018-12-20T19:38:10.520Z,1.60
2018-12-20T19:40:38.090Z,1.30
2018-12-20T19:43:05.655Z,1.40
2018-12-20T19:45:33.204Z,1.70
2018-12-20T19:48:00.949Z,1.70
2018-12-20T19:50:28.656Z,1.97
2018-12-20T19:52:56.256Z,1.73
2018-12-20T19:55:23.875Z,1.90
2018-12-20T19:57:51.695Z,1.50
2018-12-20T20:00:19.310Z,1.83
2018-12-20T20:02:47.135Z,1.70
2018-12-20T20:05:14.714Z,2.03
2018-12-20T20:07:42.410Z,1.90
2018-12-20T20:10:09.969Z,1.85
2018-12-20T20:12:37.514Z,1.90
2018-12-20T20:15:16.049Z,2.00
2018-12-20T20:17:37.048Z,1.53
2018-12-20T20:20:13.528Z,1.80
2018-12-20T20:22:35.010Z,1.60
2018-12-20T20:25:03.142Z,2.10
2018-12-20T20:27:30.665Z,1.97
2018-12-20T20:29:58.320Z,2.00
2018-12-20T20:32:26.101Z,2.00
2018-12-20T20:34:53.769Z,2.40
2018-12-20T20:37:21.509Z,2.50
2018-12-20T20:39:49.104Z,2.37
2018-12-20T20:42:16.865Z,2.10
2018-12-20T20:44:44.425Z,1.70
2018-12-20T20:47:12.066Z,2.17
2018-12-20T20:49:39.887Z,1.87
2018-12-20T20:52:07.605Z,2.03
2018-12-20T20:54:35.436Z,2.50
2018-12-20T20:57:03.020Z,1.93
2018-12-20T20:59:30.794Z,1.77
2018-12-20T21:01:58.318Z,2.57
2018-12-20T21:04:25.985Z,2.43
2018-12-20T21:06:53.681Z,2.27
2018-12-20T21:09:21.255Z,2.07
2018-12-20T21:11:48.820Z,1.70
2018-12-20T21:14:16.555Z,2.00
2018-12-20T21:16:44.281Z,1.73
2018-12-20T21:19:11.913Z,1.57
2018-12-20T21:21:39.486Z,1.67
2018-12-20T21:24:07.099Z,2.17
2018-12-20T21:26:34.671Z,1.40
2018-12-20T21:29:02.290Z,1.50
2018-12-20T21:31:30.207Z,1.37
2018-12-20T21:33:57.835Z,2.20
2018-12-20T21:36:25.694Z,1.70
2018-12-20T21:38:53.276Z,1.90
2018-12-20T21:41:20.791Z,1.47
2018-12-20T21:43:48.599Z,1.83
2018-12-20T21:46:16.186Z,1.30
2018-12-20T21:48:43.715Z,1.70
2018-12-20T21:51:11.241Z,1.37
2018-12-20T21:53:38.901Z,1.50
2018-12-20T21:56:06.415Z,1.20
2018-12-20T21:58:34.235Z,1.40
2018-12-20T22:01:01.817Z,1.40
2018-12-20T22:03:29.596Z,1.20
2018-12-20T22:05:57.130Z,1.10
2018-12-20T22:08:25.080Z,1.70
2018-12-20T22:10:52.914Z,1.37
2018-12-20T22:13:20.569Z,1.70
2018-12-20T22:15:48.187Z,1.53
2018-12-20T22:18:16.114Z,1.60
2018-12-20T22:20:47.206Z,1.67
2018-12-20T22:23:13.289Z,1.90
2018-12-20T22:25:40.825Z,2.27
2018-12-20T22:28:08.403Z,2.07
2018-12-20T22:30:35.930Z,1.80
2018-12-20T22:33:03.682Z,1.90
2018-12-20T22:35:31.236Z,1.70
2018-12-20T22:37:58.795Z,2.20
2018-12-20T22:40:26.394Z,1.73
2018-12-20T22:42:53.957Z,2.23
2018-12-20T22:45:21.534Z,2.20
2018-12-20T22:47:49.207Z,1.80
2018-12-20T22:50:16.854Z,2.43
2018-12-20T22:52:44.401Z,1.80
2018-12-20T22:55:12.004Z,2.20
2018-12-20T22:57:39.562Z,1.77
2018-12-20T23:00:09.448Z,1.80
2018-12-20T23:02:36.985Z,1.70
2018-12-20T23:05:04.969Z,1.40
2018-12-20T23:07:32.505Z,1.70
2018-12-20T23:10:00.009Z,1.50
2018-12-20T23:12:28.059Z,1.53
2018-12-20T23:14:55.635Z,1.80
2018-12-20T23:17:23.256Z,1.70
2018-12-20T23:19:51.185Z,2.00
2018-12-20T23:22:18.743Z,2.00
2018-12-20T23:24:46.299Z,2.20
2018-12-20T23:27:13.909Z,2.20
2018-12-20T23:29:41.572Z,2.10
2018-12-20T23:32:09.153Z,2.13
2018-12-20T23:34:37.167Z,1.90
2018-12-20T23:37:04.815Z,2.40
2018-12-20T23:39:32.698Z,2.57
2018-12-20T23:42:00.229Z,2.17
2018-12-20T23:44:27.747Z,2.77
2018-12-20T23:46:55.295Z,2.50
2018-12-20T23:49:22.829Z,2.50
2018-12-20T23:51:50.616Z,2.77
2018-12-20T23:54:18.541Z,3.33
2018-12-20T23:56:46.088Z,2.77
2018-12-20T23:59:13.911Z,2.80
